createdAt,value
2018-07-06T00:01:22.302Z,3.20
2018-07-06T00:04:02.993Z,3.80
2018-07-06T00:06:43.533Z,3.83
2018-07-06T00:09:23.859Z,3.60
2018-07-06T00:12:04.263Z,3.77
2018-07-06T00:14:44.768Z,3.07
2018-07-06T00:17:25.283Z,3.50
2018-07-06T00:20:06.015Z,2.93
2018-07-06T00:22:46.568Z,3.20
2018-07-06T00:25:27.094Z,3.50
2018-07-06T00:28:07.581Z,3.40
2018-07-06T00:30:48.148Z,2.70
2018-07-06T00:33:28.611Z,3.57
2018-07-06T00:36:09.237Z,3.20
2018-07-06T00:38:49.867Z,2.93
2018-07-06T00:41:30.293Z,3.07
2018-07-06T00:44:10.653Z,3.00
2018-07-06T00:46:51.163Z,2.33
2018-07-06T00:49:31.898Z,2.70
2018-07-06T00:52:12.314Z,2.53
2018-07-06T00:54:52.984Z,2.60
2018-07-06T00:57:36.547Z,2.50
2018-07-06T01:00:17.351Z,2.20
2018-07-06T01:02:57.873Z,2.60
2018-07-06T01:05:38.349Z,2.00
2018-07-06T01:08:18.670Z,2.50
2018-07-06T01:10:59.990Z,2.53
2018-07-06T01:13:40.481Z,2.40
2018-07-06T01:16:20.970Z,2.33
2018-07-06T01:19:01.541Z,2.40
2018-07-06T01:21:42.575Z,2.50
2018-07-06T01:24:22.905Z,2.97
2018-07-06T01:27:03.504Z,2.40
2018-07-06T01:29:44.119Z,2.33
2018-07-06T01:32:24.869Z,2.27
2018-07-06T01:34:59.243Z,3.10
2018-07-06T01:37:39.842Z,3.40
2018-07-06T01:40:20.461Z,2.80
2018-07-06T01:43:01.121Z,2.10
2018-07-06T01:45:41.634Z,1.97
2018-07-06T01:48:22.194Z,2.00
2018-07-06T01:51:02.578Z,2.30
2018-07-06T01:53:43.400Z,2.23
2018-07-06T01:56:23.992Z,2.07
2018-07-06T01:59:04.352Z,1.90
2018-07-06T02:01:44.973Z,2.10
2018-07-06T02:04:25.565Z,2.10
2018-07-06T02:07:06.019Z,1.70
2018-07-06T02:09:46.452Z,1.90
2018-07-06T02:12:26.966Z,1.60
2018-07-06T02:15:07.685Z,2.03
2018-07-06T02:17:48.252Z,1.50
2018-07-06T02:20:28.839Z,2.13
2018-07-06T02:23:09.605Z,1.83
2018-07-06T02:25:50.259Z,1.73
2018-07-06T02:28:30.530Z,1.90
2018-07-06T02:31:11.100Z,1.90
2018-07-06T02:33:51.650Z,2.00
2018-07-06T02:36:32.178Z,1.47
2018-07-06T02:39:12.993Z,1.57
2018-07-06T02:41:53.970Z,1.87
2018-07-06T02:44:34.791Z,2.10
2018-07-06T02:47:15.309Z,1.70
2018-07-06T02:49:55.918Z,1.70
2018-07-06T02:52:36.394Z,1.80
2018-07-06T02:55:17.079Z,2.17
2018-07-06T02:57:57.526Z,1.80
2018-07-06T03:00:38.039Z,1.70
2018-07-06T03:03:18.617Z,2.10
2018-07-06T03:05:59.445Z,2.10
2018-07-06T03:08:39.938Z,1.80
2018-07-06T03:11:14.322Z,2.00
2018-07-06T03:13:54.828Z,2.07
2018-07-06T03:16:35.672Z,1.80
2018-07-06T03:19:16.015Z,2.10
2018-07-06T03:21:56.618Z,1.63
2018-07-06T03:24:37.215Z,1.70
2018-07-06T03:27:17.685Z,1.90
2018-07-06T03:29:57.913Z,1.57
2018-07-06T03:32:38.389Z,2.00
2018-07-06T03:35:19.021Z,1.80
2018-07-06T03:37:59.405Z,1.70
2018-07-06T03:40:39.821Z,1.40
2018-07-06T03:43:20.306Z,1.77
2018-07-06T03:46:00.774Z,1.77
2018-07-06T03:48:41.341Z,2.00
2018-07-06T03:51:22.085Z,1.80
2018-07-06T03:54:02.493Z,1.50
2018-07-06T03:56:42.988Z,1.53
2018-07-06T03:59:23.489Z,1.60
2018-07-06T04:02:04.036Z,1.63
2018-07-06T04:04:44.802Z,1.47
2018-07-06T04:07:25.448Z,1.90
2018-07-06T04:10:05.858Z,1.63
2018-07-06T04:12:46.525Z,1.60
2018-07-06T04:15:27.082Z,1.57
2018-07-06T04:18:01.515Z,1.50
2018-07-06T04:20:41.906Z,1.50
2018-07-06T04:23:22.333Z,1.70
2018-07-06T04:26:02.781Z,1.50
2018-07-06T04:28:43.243Z,1.40
2018-07-06T04:31:23.561Z,2.10
2018-07-06T04:34:04.188Z,1.60
2018-07-06T04:36:44.691Z,1.83
2018-07-06T04:39:25.633Z,2.10
2018-07-06T04:42:06.078Z,1.70
2018-07-06T04:44:47.101Z,1.60
2018-07-06T04:47:27.634Z,1.93
2018-07-06T04:50:08.106Z,2.20
2018-07-06T04:52:48.466Z,2.07
2018-07-06T04:55:29.047Z,1.80
2018-07-06T04:58:09.405Z,2.00
2018-07-06T05:00:49.874Z,2.10
2018-07-06T05:03:30.313Z,1.97
2018-07-06T05:06:10.588Z,2.10
2018-07-06T05:08:50.978Z,3.47
2018-07-06T05:11:31.542Z,2.40
2018-07-06T05:14:12.105Z,2.23
2018-07-06T05:16:52.524Z,2.03
2018-07-06T05:19:32.998Z,2.13
2018-07-06T05:22:13.544Z,2.20
2018-07-06T05:24:54.266Z,1.90
2018-07-06T05:27:34.717Z,2.10
2018-07-06T05:30:15.482Z,2.50
2018-07-06T05:32:56.031Z,2.10
2018-07-06T05:35:36.897Z,2.10
2018-07-06T05:38:18.754Z,2.23
2018-07-06T05:40:59.252Z,2.97
2018-07-06T05:43:40.226Z,2.73
2018-07-06T05:46:20.927Z,3.00
2018-07-06T05:49:01.985Z,2.93
2018-07-06T05:51:42.689Z,2.00
2018-07-06T05:54:23.300Z,2.40
2018-07-06T05:57:03.851Z,2.67
2018-07-06T05:59:44.942Z,2.73
2018-07-06T06:02:25.547Z,2.67
2018-07-06T06:05:05.913Z,2.60
2018-07-06T06:07:33.995Z,2.50
2018-07-06T06:10:03.294Z,2.70
2018-07-06T06:12:32.472Z,2.77
2018-07-06T06:15:01.608Z,3.27
2018-07-06T06:17:30.746Z,3.27
2018-07-06T06:19:59.901Z,3.23
2018-07-06T06:22:29.023Z,2.70
2018-07-06T06:24:58.241Z,2.93
2018-07-06T06:27:27.413Z,4.07
2018-07-06T06:29:56.579Z,3.70
2018-07-06T06:32:25.712Z,3.37
2018-07-06T06:34:54.870Z,2.83
2018-07-06T06:37:23.995Z,2.90
2018-07-06T06:39:54.085Z,3.00
2018-07-06T06:42:23.217Z,3.50
2018-07-06T06:44:52.601Z,3.20
2018-07-06T06:47:21.839Z,3.90
2018-07-06T06:49:51.194Z,3.57
2018-07-06T06:52:20.277Z,3.30
2018-07-06T06:54:49.514Z,3.60
2018-07-06T06:57:18.599Z,3.30
2018-07-06T06:59:48.850Z,3.30
2018-07-06T07:02:18.549Z,3.43
2018-07-06T07:04:47.681Z,2.87
2018-07-06T07:07:16.962Z,2.80
2018-07-06T07:09:46.219Z,2.90
2018-07-06T07:12:15.640Z,7.17
2018-07-06T07:14:44.718Z,3.10
2018-07-06T07:17:14.458Z,3.50
2018-07-06T07:19:43.600Z,3.10
2018-07-06T07:22:12.785Z,3.50
2018-07-06T07:24:42.346Z,3.37
2018-07-06T07:27:11.717Z,3.13
2018-07-06T07:29:40.910Z,3.20
2018-07-06T07:32:10.142Z,3.07
2018-07-06T07:34:39.278Z,2.90
2018-07-06T07:37:08.423Z,3.20
2018-07-06T07:39:37.632Z,3.90
2018-07-06T07:42:06.732Z,3.20
2018-07-06T07:44:35.924Z,2.67
2018-07-06T07:47:05.151Z,3.33
2018-07-06T07:49:34.503Z,3.43
2018-07-06T07:52:15.500Z,3.87
2018-07-06T07:54:47.353Z,3.90
2018-07-06T07:57:16.624Z,3.00
2018-07-06T07:59:46.388Z,3.33
2018-07-06T08:02:16.097Z,3.50
2018-07-06T08:04:45.601Z,3.30
2018-07-06T08:07:14.987Z,3.10
2018-07-06T08:09:44.801Z,3.40
2018-07-06T08:12:13.912Z,3.40
2018-07-06T08:14:43.094Z,3.40
2018-07-06T08:17:12.716Z,3.10
2018-07-06T08:19:41.779Z,3.47
2018-07-06T08:22:12.242Z,3.60
2018-07-06T08:24:41.612Z,3.57
2018-07-06T08:27:10.682Z,3.43
2018-07-06T08:29:39.918Z,3.20
2018-07-06T08:32:09.317Z,3.17
2018-07-06T08:34:50.510Z,3.37
2018-07-06T08:37:34.435Z,3.00
2018-07-06T08:40:03.869Z,3.60
2018-07-06T08:42:34.389Z,3.10
2018-07-06T08:45:04.267Z,3.43
2018-07-06T08:47:33.407Z,3.80
2018-07-06T08:50:03.154Z,3.30
2018-07-06T08:52:33.241Z,3.20
2018-07-06T08:55:02.338Z,3.00
2018-07-06T08:57:32.655Z,3.47
2018-07-06T09:00:01.745Z,3.27
2018-07-06T09:02:31.105Z,3.20
2018-07-06T09:05:00.986Z,2.90
2018-07-06T09:07:30.269Z,3.83
2018-07-06T09:10:00.263Z,5.13
2018-07-06T09:12:29.766Z,3.77
2018-07-06T09:14:59.961Z,4.37
2018-07-06T09:17:29.094Z,3.87
2018-07-06T09:19:59.434Z,3.83
2018-07-06T09:22:28.249Z,3.63
2018-07-06T09:24:59.521Z,3.50
2018-07-06T09:27:28.631Z,3.10
2018-07-06T09:29:57.792Z,4.83
2018-07-06T09:32:26.929Z,3.70
2018-07-06T09:34:56.028Z,4.13
2018-07-06T09:37:25.429Z,3.20
2018-07-06T09:39:54.928Z,3.70
2018-07-06T09:42:24.462Z,3.47
2018-07-06T09:44:53.589Z,4.10
2018-07-06T09:47:23.097Z,3.20
2018-07-06T09:49:52.439Z,4.27
2018-07-06T09:52:21.542Z,3.60
2018-07-06T09:54:50.664Z,4.00
2018-07-06T09:57:19.809Z,4.20
2018-07-06T09:59:48.902Z,5.80
2018-07-06T10:02:18.053Z,4.60
2018-07-06T10:04:47.214Z,4.07
2018-07-06T10:07:16.561Z,4.00
2018-07-06T10:09:45.985Z,5.60
2018-07-06T10:12:15.132Z,5.70
2018-07-06T10:14:44.284Z,5.37
2018-07-06T10:17:13.406Z,4.77
2018-07-06T10:19:42.530Z,5.43
2018-07-06T10:22:11.762Z,4.97
2018-07-06T10:24:41.118Z,6.00
2018-07-06T10:27:10.205Z,5.37
2018-07-06T10:29:52.203Z,5.00
2018-07-06T10:32:22.645Z,5.33
2018-07-06T10:34:51.817Z,5.60
2018-07-06T10:37:21.220Z,5.53
2018-07-06T10:39:51.080Z,5.77
2018-07-06T10:42:20.093Z,6.80
2018-07-06T10:44:49.426Z,5.57
2018-07-06T10:47:18.648Z,5.63
2018-07-06T10:49:47.782Z,4.80
2018-07-06T10:52:17.302Z,5.17
2018-07-06T10:54:47.240Z,5.70
2018-07-06T10:57:16.395Z,6.77
2018-07-06T10:59:45.566Z,7.00
2018-07-06T11:02:14.733Z,7.30
2018-07-06T11:04:44.091Z,7.80
2018-07-06T11:07:13.699Z,7.47
2018-07-06T11:09:42.839Z,7.90
2018-07-06T11:12:11.938Z,7.20
2018-07-06T11:14:41.058Z,8.40
2018-07-06T11:17:10.238Z,7.80
2018-07-06T11:19:39.712Z,8.20
2018-07-06T11:22:08.969Z,6.83
2018-07-06T11:24:38.075Z,7.17
2018-07-06T11:27:07.466Z,6.70
2018-07-06T11:29:36.848Z,7.47
2018-07-06T11:32:06.262Z,6.83
2018-07-06T11:34:35.451Z,6.63
2018-07-06T11:37:04.596Z,6.43
2018-07-06T11:39:33.721Z,6.70
2018-07-06T11:42:03.122Z,6.47
2018-07-06T11:44:32.399Z,6.83
2018-07-06T11:47:01.538Z,7.73
2018-07-06T11:49:30.661Z,6.33
2018-07-06T11:51:59.765Z,6.33
2018-07-06T11:54:29.046Z,5.70
2018-07-06T11:56:58.158Z,5.27
2018-07-06T11:59:27.319Z,5.00
2018-07-06T12:01:56.482Z,5.10
2018-07-06T12:04:25.854Z,4.50
2018-07-06T12:06:54.887Z,4.90
2018-07-06T12:09:24.485Z,5.33
2018-07-06T12:11:53.700Z,5.33
2018-07-06T12:14:22.819Z,4.53
2018-07-06T12:16:51.903Z,4.70
2018-07-06T12:19:21.054Z,4.90
2018-07-06T12:21:50.173Z,4.50
2018-07-06T12:24:19.384Z,4.87
2018-07-06T12:26:48.487Z,4.53
2018-07-06T12:29:17.593Z,4.80
2018-07-06T12:31:46.715Z,4.97
2018-07-06T12:34:15.881Z,4.30
2018-07-06T12:36:44.992Z,5.20
2018-07-06T12:39:14.133Z,4.53
2018-07-06T12:41:43.402Z,4.37
2018-07-06T12:44:12.593Z,4.97
2018-07-06T12:46:41.726Z,4.10
2018-07-06T12:49:10.961Z,4.00
2018-07-06T12:51:40.046Z,4.30
2018-07-06T12:54:09.159Z,4.20
2018-07-06T12:56:38.503Z,4.17
2018-07-06T12:59:07.766Z,4.50
2018-07-06T13:01:36.918Z,4.20
2018-07-06T13:04:06.088Z,3.97
2018-07-06T13:06:35.235Z,4.10
2018-07-06T13:09:05.146Z,3.43
2018-07-06T13:11:34.283Z,3.70
2018-07-06T13:14:03.141Z,3.50
2018-07-06T13:16:32.449Z,3.10
2018-07-06T13:19:01.536Z,3.80
2018-07-06T13:21:30.672Z,3.40
2018-07-06T13:23:59.768Z,3.37
2018-07-06T13:26:28.897Z,2.80
2018-07-06T13:28:58.026Z,2.53
2018-07-06T13:31:27.397Z,3.03
2018-07-06T13:33:56.636Z,2.70
2018-07-06T13:36:25.705Z,3.30
2018-07-06T13:38:55.895Z,2.73
2018-07-06T13:41:25.235Z,2.50
2018-07-06T13:43:54.725Z,2.50
2018-07-06T13:46:24.126Z,2.50
2018-07-06T13:48:53.344Z,2.30
2018-07-06T13:51:22.849Z,2.57
2018-07-06T13:53:52.035Z,2.20
2018-07-06T13:56:21.290Z,2.20
2018-07-06T13:58:50.429Z,2.20
2018-07-06T14:01:19.480Z,2.40
2018-07-06T14:03:48.843Z,2.50
2018-07-06T14:06:18.472Z,2.40
2018-07-06T14:08:47.570Z,2.20
2018-07-06T14:11:16.717Z,2.20
2018-07-06T14:13:45.809Z,2.40
2018-07-06T14:16:15.020Z,2.10
2018-07-06T14:18:44.465Z,2.33
2018-07-06T14:21:13.655Z,2.30
2018-07-06T14:23:42.817Z,2.40
2018-07-06T14:26:11.922Z,2.10
2018-07-06T14:28:41.077Z,2.33
2018-07-06T14:31:10.177Z,2.30
2018-07-06T14:33:39.321Z,2.30
2018-07-06T14:36:08.492Z,2.40
2018-07-06T14:38:37.647Z,2.27
2018-07-06T14:41:06.921Z,2.30
2018-07-06T14:43:36.033Z,2.40
2018-07-06T14:46:05.145Z,2.10
2018-07-06T14:48:34.625Z,2.33
2018-07-06T14:51:04.022Z,2.20
2018-07-06T14:53:33.857Z,2.00
2018-07-06T14:56:03.293Z,2.00
2018-07-06T14:58:32.759Z,2.00
2018-07-06T15:01:02.794Z,2.20
2018-07-06T15:03:31.940Z,1.90
2018-07-06T15:06:01.155Z,2.20
2018-07-06T15:08:30.762Z,2.30
2018-07-06T15:11:02.042Z,1.80
2018-07-06T15:13:31.867Z,1.93
2018-07-06T15:16:01.408Z,2.07
2018-07-06T15:18:31.044Z,2.07
2018-07-06T15:21:00.454Z,1.80
2018-07-06T15:23:29.800Z,2.03
2018-07-06T15:25:59.574Z,1.90
2018-07-06T15:28:29.154Z,2.10
2018-07-06T15:30:58.983Z,1.90
2018-07-06T15:33:28.656Z,2.27
2018-07-06T15:35:58.070Z,2.33
2018-07-06T15:38:27.510Z,2.23
2018-07-06T15:40:57.432Z,2.37
2018-07-06T15:43:27.478Z,2.77
2018-07-06T15:45:56.698Z,2.83
2018-07-06T15:48:26.106Z,1.97
2018-07-06T15:50:55.497Z,2.30
2018-07-06T15:53:24.991Z,2.00
2018-07-06T15:55:54.295Z,2.10
2018-07-06T15:58:25.678Z,1.93
2018-07-06T16:00:55.411Z,2.00
2018-07-06T16:03:24.859Z,2.03
2018-07-06T16:06:00.832Z,2.60
2018-07-06T16:08:31.110Z,2.40
2018-07-06T16:11:00.655Z,2.27
2018-07-06T16:13:29.772Z,3.23
2018-07-06T16:15:58.941Z,3.00
2018-07-06T16:18:28.134Z,2.80
2018-07-06T16:20:57.749Z,2.53
2018-07-06T16:23:31.961Z,2.20
2018-07-06T16:26:02.222Z,2.50
2018-07-06T16:28:31.341Z,2.20
2018-07-06T16:31:01.182Z,2.40
2018-07-06T16:33:30.380Z,2.10
2018-07-06T16:35:59.800Z,2.20
2018-07-06T16:38:30.586Z,2.60
2018-07-06T16:40:59.934Z,2.77
2018-07-06T16:43:29.136Z,2.60
2018-07-06T16:45:58.416Z,2.70
2018-07-06T16:48:27.838Z,2.43
2018-07-06T16:50:57.534Z,3.00
2018-07-06T16:53:27.035Z,2.60
2018-07-06T16:55:56.104Z,2.40
2018-07-06T16:58:25.862Z,2.70
2018-07-06T17:00:55.220Z,2.77
2018-07-06T17:03:24.292Z,2.90
2018-07-06T17:05:53.740Z,2.63
2018-07-06T17:08:23.404Z,3.17
2018-07-06T17:10:52.481Z,2.70
2018-07-06T17:13:21.615Z,2.40
2018-07-06T17:15:51.143Z,3.23
2018-07-06T17:18:20.317Z,2.63
2018-07-06T17:20:49.450Z,3.13
2018-07-06T17:23:18.566Z,2.80
2018-07-06T17:25:49.657Z,2.63
2018-07-06T17:28:19.010Z,2.60
2018-07-06T17:30:48.137Z,3.03
2018-07-06T17:33:17.897Z,3.10
2018-07-06T17:35:47.066Z,3.07
2018-07-06T17:38:16.609Z,3.00
2018-07-06T17:40:46.520Z,4.47
2018-07-06T17:43:16.027Z,2.77
2018-07-06T17:45:45.384Z,2.80
2018-07-06T17:48:14.521Z,2.60
2018-07-06T17:50:43.720Z,3.20
2018-07-06T17:53:12.815Z,2.67
2018-07-06T17:55:42.098Z,2.90
2018-07-06T17:58:11.298Z,2.80
2018-07-06T18:00:40.593Z,3.20
2018-07-06T18:03:11.153Z,2.77
2018-07-06T18:05:40.434Z,2.90
2018-07-06T18:08:09.740Z,2.80
2018-07-06T18:10:39.391Z,2.60
2018-07-06T18:13:08.930Z,3.00
2018-07-06T18:15:38.270Z,7.67
2018-07-06T18:18:07.742Z,2.97
2018-07-06T18:20:36.916Z,2.20
2018-07-06T18:23:06.261Z,2.67
2018-07-06T18:25:35.467Z,2.70
2018-07-06T18:28:04.599Z,2.00
2018-07-06T18:30:34.277Z,2.30
2018-07-06T18:33:03.460Z,2.43
2018-07-06T18:35:32.842Z,18.87
2018-07-06T18:38:02.394Z,2.50
2018-07-06T18:40:31.610Z,2.53
2018-07-06T18:43:00.745Z,2.27
2018-07-06T18:45:29.991Z,2.33
2018-07-06T18:47:59.268Z,1.93
2018-07-06T18:50:28.512Z,2.53
2018-07-06T18:52:57.970Z,1.53
2018-07-06T18:55:28.188Z,2.57
2018-07-06T18:57:57.469Z,3.17
2018-07-06T19:00:27.379Z,2.30
2018-07-06T19:02:56.895Z,2.03
2018-07-06T19:05:26.171Z,2.80
2018-07-06T19:07:56.693Z,2.80
2018-07-06T19:10:25.983Z,2.30
2018-07-06T19:12:55.316Z,2.13
2018-07-06T19:15:24.695Z,2.30
2018-07-06T19:17:54.016Z,2.03
2018-07-06T19:20:24.315Z,2.43
2018-07-06T19:22:53.618Z,2.07
2018-07-06T19:25:22.837Z,2.60
2018-07-06T19:27:52.144Z,2.37
2018-07-06T19:30:21.250Z,4.73
2018-07-06T19:32:50.605Z,3.27
2018-07-06T19:35:20.236Z,2.30
2018-07-06T19:37:50.126Z,2.30
2018-07-06T19:40:19.578Z,2.10
2018-07-06T19:42:48.830Z,2.20
2018-07-06T19:45:18.264Z,2.37
2018-07-06T19:47:47.800Z,2.53
2018-07-06T19:50:16.781Z,2.10
2018-07-06T19:52:45.770Z,2.17
2018-07-06T19:55:15.255Z,2.17
2018-07-06T19:57:44.431Z,2.30
2018-07-06T20:00:13.593Z,2.10
2018-07-06T20:02:42.751Z,2.27
2018-07-06T20:05:11.642Z,2.83
2018-07-06T20:07:47.211Z,2.17
2018-07-06T20:10:17.059Z,2.17
2018-07-06T20:12:54.376Z,2.40
2018-07-06T20:15:24.895Z,2.90
2018-07-06T20:17:54.043Z,2.60
2018-07-06T20:20:23.149Z,2.93
2018-07-06T20:22:52.333Z,2.53
2018-07-06T20:25:21.818Z,3.20
2018-07-06T20:27:51.007Z,3.23
2018-07-06T20:30:20.304Z,2.90
2018-07-06T20:32:49.614Z,2.90
2018-07-06T20:35:18.790Z,2.70
2018-07-06T20:37:48.033Z,2.67
2018-07-06T20:40:22.120Z,2.73
2018-07-06T20:42:51.312Z,2.43
2018-07-06T20:45:21.217Z,2.33
2018-07-06T20:47:50.642Z,2.73
2018-07-06T20:50:19.830Z,2.90
2018-07-06T20:52:49.947Z,3.13
2018-07-06T20:55:19.608Z,2.10
2018-07-06T20:57:48.496Z,2.00
2018-07-06T21:00:17.486Z,2.43
2018-07-06T21:02:46.624Z,2.77
2018-07-06T21:05:16.109Z,1.90
2018-07-06T21:07:45.406Z,2.90
2018-07-06T21:10:14.571Z,3.30
2018-07-06T21:12:44.691Z,2.33
2018-07-06T21:15:14.039Z,2.93
2018-07-06T21:17:43.137Z,3.03
2018-07-06T21:20:12.249Z,2.87
2018-07-06T21:22:41.684Z,2.60
2018-07-06T21:25:11.274Z,2.53
2018-07-06T21:27:40.579Z,2.00
2018-07-06T21:30:25.680Z,2.27
2018-07-06T21:32:54.815Z,2.27
2018-07-06T21:35:33.196Z,1.80
2018-07-06T21:38:04.062Z,1.77
2018-07-06T21:40:33.410Z,4.90
2018-07-06T21:43:02.503Z,3.30
2018-07-06T21:45:31.709Z,3.10
2018-07-06T21:48:00.987Z,2.60
2018-07-06T21:50:30.134Z,2.37
2018-07-06T21:52:59.286Z,2.10
2018-07-06T21:55:35.380Z,1.90
2018-07-06T21:58:04.478Z,2.00
2018-07-06T22:00:38.288Z,1.90
2018-07-06T22:03:09.982Z,2.13
2018-07-06T22:05:40.531Z,2.00
2018-07-06T22:08:09.901Z,3.00
2018-07-06T22:10:39.654Z,2.50
2018-07-06T22:13:10.368Z,1.40
2018-07-06T22:15:44.280Z,1.93
2018-07-06T22:18:15.531Z,7.37
2018-07-06T22:20:46.134Z,3.97
2018-07-06T22:23:16.073Z,2.10
2018-07-06T22:25:45.814Z,2.60
2018-07-06T22:28:14.894Z,3.33
2018-07-06T22:30:44.258Z,3.63
2018-07-06T22:33:13.706Z,2.37
2018-07-06T22:35:43.269Z,2.40
2018-07-06T22:38:12.469Z,2.57
2018-07-06T22:40:41.577Z,4.40
2018-07-06T22:43:11.271Z,1.53
2018-07-06T22:45:40.674Z,3.20
2018-07-06T22:48:09.747Z,1.80
2018-07-06T22:50:38.802Z,1.97
2018-07-06T22:53:07.978Z,2.07
2018-07-06T22:55:37.325Z,2.13
2018-07-06T22:58:06.400Z,1.80
2018-07-06T23:00:35.550Z,2.00
2018-07-06T23:03:05.790Z,1.50
2018-07-06T23:05:35.221Z,5.33
2018-07-06T23:08:04.578Z,2.37
2018-07-06T23:10:33.669Z,2.57
2018-07-06T23:13:02.786Z,2.13
2018-07-06T23:15:46.396Z,2.20
2018-07-06T23:18:15.480Z,1.97
2018-07-06T23:20:44.895Z,1.83
2018-07-06T23:23:15.040Z,2.23
2018-07-06T23:25:47.161Z,2.43
2018-07-06T23:28:16.373Z,2.30
2018-07-06T23:30:45.434Z,2.20
2018-07-06T23:33:14.941Z,1.73
2018-07-06T23:35:43.811Z,1.37
2018-07-06T23:38:12.810Z,4.67
2018-07-06T23:40:41.927Z,2.73
2018-07-06T23:43:11.001Z,1.77
2018-07-06T23:45:40.077Z,1.80
2018-07-06T23:48:09.429Z,1.80
2018-07-06T23:50:38.547Z,1.87
2018-07-06T23:53:07.632Z,2.43
2018-07-06T23:55:36.701Z,2.23
2018-07-06T23:58:06.071Z,2.00
